Time;durP1;ratioP1;P1;durP2;ratioP2;P2;SDS_P1;SDS_P2;PMS_P1;PMS_P2;Temp;Humidity;BMP_temperature;BMP_pressure;BME280_temperature;BME280_humidity;BME280_pressure;Samples;Min_cycle;Max_cycle;Signal;HPM_P1;HPM_P2
2023/11/26 00:00:00;;;;;;;6.38;3.38;;;1.90;99.90;;;;;;4915896;29;20060;-67
2023/11/26 00:02:26;;;;;;;7.43;4.20;;;1.80;99.90;;;;;;4914078;29;20036;-67
2023/11/26 00:04:52;;;;;;;8.13;4.72;;;1.80;99.90;;;;;;4915755;29;20031;-67
2023/11/26 00:07:18;;;;;;;6.38;4.47;;;1.90;99.90;;;;;;4914345;29;20040;-67
2023/11/26 00:09:43;;;;;;;7.95;5.00;;;2.00;99.90;;;;;;4915372;29;20032;-67
2023/11/26 00:12:09;;;;;;;8.57;4.45;;;2.00;99.90;;;;;;4915060;29;20032;-67
2023/11/26 00:14:38;;;;;;;11.23;5.55;;;2.00;99.90;;;;;;4915083;29;20154;-67
2023/11/26 00:17:05;;;;;;;11.57;5.47;;;2.00;99.90;;;;;;4915300;29;20067;-67
2023/11/26 00:19:32;;;;;;;6.45;4.68;;;2.00;99.90;;;;;;4914612;29;20041;-67
2023/11/26 00:21:58;;;;;;;9.75;5.00;;;2.00;99.90;;;;;;4915042;29;20028;-68
2023/11/26 00:24:24;;;;;;;10.68;5.53;;;2.00;99.90;;;;;;4914087;29;20028;-67
2023/11/26 00:26:49;;;;;;;8.00;4.15;;;2.00;99.90;;;;;;4914924;29;20529;-68
2023/11/26 00:29:15;;;;;;;11.05;4.95;;;2.00;99.90;;;;;;4897449;29;20119;-67
2023/11/26 00:31:41;;;;;;;12.00;4.18;;;2.00;99.90;;;;;;4914965;29;20468;-68
2023/11/26 00:34:07;;;;;;;10.93;4.85;;;2.00;99.90;;;;;;4915121;29;20028;-68
2023/11/26 00:36:33;;;;;;;14.40;5.45;;;1.90;99.90;;;;;;4913749;29;20031;-67
2023/11/26 00:38:58;;;;;;;9.57;4.30;;;1.80;99.90;;;;;;4915301;29;20038;-67
2023/11/26 00:41:24;;;;;;;8.30;4.47;;;1.70;99.90;;;;;;4914224;29;20063;-67
2023/11/26 00:43:50;;;;;;;9.68;4.90;;;1.70;99.90;;;;;;4912418;29;20059;-66
2023/11/26 00:46:16;;;;;;;8.90;4.43;;;1.80;99.90;;;;;;4913584;29;20455;-67
2023/11/26 00:48:41;;;;;;;8.02;4.57;;;1.70;99.90;;;;;;4914730;29;20115;-67
2023/11/26 00:51:07;;;;;;;12.60;5.78;;;1.70;99.90;;;;;;4914766;29;20034;-67
2023/11/26 00:53:33;;;;;;;10.15;4.20;;;1.80;99.90;;;;;;4913927;29;20024;-67
2023/11/26 00:55:59;;;;;;;10.82;4.78;;;2.00;99.90;;;;;;4914639;29;20056;-67
2023/11/26 00:58:25;;;;;;;11.20;4.85;;;2.00;99.90;;;;;;4913599;29;20036;-66
2023/11/26 01:00:51;;;;;;;8.05;4.38;;;2.00;99.90;;;;;;4914442;29;20056;-66
2023/11/26 01:03:18;;;;;;;6.82;4.15;;;1.90;99.90;;;;;;4914149;29;20036;-67
2023/11/26 01:05:44;;;;;;;8.10;4.35;;;1.90;99.90;;;;;;4914086;29;20553;-67
2023/11/26 01:08:11;;;;;;;9.60;4.47;;;2.00;99.90;;;;;;4914509;29;20505;-66
2023/11/26 01:10:37;;;;;;;8.75;4.88;;;2.00;99.90;;;;;;4913375;29;20775;-67
2023/11/26 01:13:04;;;;;;;13.57;4.15;;;2.00;99.90;;;;;;4914903;29;20070;-67
2023/11/26 01:15:30;;;;;;;8.82;4.00;;;2.10;99.90;;;;;;4913465;29;20028;-67
2023/11/26 01:17:55;;;;;;;7.53;3.88;;;2.10;99.90;;;;;;4914761;29;20039;-67
2023/11/26 01:20:21;;;;;;;8.07;4.13;;;2.10;99.90;;;;;;4913458;29;20036;-67
2023/11/26 01:22:47;;;;;;;9.65;2.97;;;2.10;99.90;;;;;;4914678;29;20035;-67
2023/11/26 01:25:13;;;;;;;9.35;3.70;;;2.10;99.90;;;;;;4914238;29;20024;-67
2023/11/26 01:27:39;;;;;;;8.70;3.30;;;2.10;99.90;;;;;;4914135;29;20043;-67
2023/11/26 01:30:06;;;;;;;8.05;3.85;;;2.10;99.90;;;;;;4914309;29;20028;-67
2023/11/26 01:32:32;;;;;;;7.28;3.50;;;2.00;99.90;;;;;;4913227;29;20107;-67
2023/11/26 01:34:58;;;;;;;10.70;3.70;;;2.00;99.90;;;;;;4914324;29;20508;-67
2023/11/26 01:37:24;;;;;;;9.40;3.90;;;2.10;99.90;;;;;;4912899;29;20048;-68
2023/11/26 01:39:50;;;;;;;10.73;3.25;;;2.00;99.90;;;;;;4914480;29;20111;-67
2023/11/26 01:42:15;;;;;;;8.43;4.18;;;2.20;99.90;;;;;;4910287;29;20029;-67
2023/11/26 01:44:41;;;;;;;8.70;3.90;;;2.10;99.90;;;;;;4914391;29;20483;-67
2023/11/26 01:47:08;;;;;;;7.03;3.53;;;2.10;99.90;;;;;;4913841;29;20040;-67
2023/11/26 01:49:36;;;;;;;10.00;3.60;;;2.20;99.90;;;;;;4913595;29;20031;-67
2023/11/26 01:52:04;;;;;;;10.52;3.65;;;2.20;99.90;;;;;;4914053;29;20036;-66
2023/11/26 01:54:33;;;;;;;5.28;2.95;;;2.20;99.90;;;;;;4913180;29;20478;-66
2023/11/26 01:57:01;;;;;;;7.72;3.38;;;2.30;99.90;;;;;;4914039;29;20039;-66
2023/11/26 01:59:27;;;;;;;10.18;3.20;;;2.20;99.90;;;;;;4916062;29;20051;-67
2023/11/26 02:01:54;;;;;;;5.70;2.90;;;2.20;99.90;;;;;;4919995;29;20032;-67
2023/11/26 02:04:20;;;;;;;6.57;2.92;;;2.10;99.90;;;;;;4917738;29;20036;-66
2023/11/26 02:06:47;;;;;;;7.38;3.22;;;1.90;99.90;;;;;;4917388;29;20028;-65
2023/11/26 02:09:18;;;;;;;7.57;4.20;;;1.90;99.90;;;;;;4918581;29;20024;-66
2023/11/26 02:11:45;;;;;;;10.13;2.92;;;1.90;99.90;;;;;;4918050;29;20114;-65
2023/11/26 02:14:12;;;;;;;7.07;3.00;;;1.70;99.90;;;;;;4918067;29;20032;-65
2023/11/26 02:16:39;;;;;;;7.40;2.95;;;1.60;99.90;;;;;;4917129;29;20052;-66
2023/11/26 02:19:21;;;;;;;8.45;3.20;;;1.50;99.90;;;;;;4917876;29;20024;-65
2023/11/26 02:21:46;;;;;;;6.15;3.08;;;1.50;99.90;;;;;;4917572;29;20032;-65
2023/11/26 02:24:16;;;;;;;5.47;2.80;;;1.40;99.90;;;;;;4917170;29;20051;-66
2023/11/26 02:26:42;;;;;;;8.60;3.50;;;1.40;99.90;;;;;;4916727;29;20020;-65
2023/11/26 02:29:08;;;;;;;7.00;4.05;;;1.30;99.90;;;;;;4917879;29;20025;-66
2023/11/26 02:31:35;;;;;;;8.52;3.35;;;1.20;99.90;;;;;;4916362;29;20049;-66
2023/11/26 02:34:03;;;;;;;11.27;4.00;;;1.00;99.90;;;;;;4917470;29;20119;-66
2023/11/26 02:36:29;;;;;;;7.93;3.38;;;1.00;99.90;;;;;;4915454;29;20027;-65
2023/11/26 02:38:54;;;;;;;10.02;3.95;;;0.90;99.90;;;;;;4900537;29;20493;-65
2023/11/26 02:41:20;;;;;;;9.02;3.65;;;0.80;99.90;;;;;;4915992;29;20083;-66
2023/11/26 02:43:45;;;;;;;6.30;3.25;;;0.70;99.90;;;;;;4914186;29;20115;-65
2023/11/26 02:46:11;;;;;;;10.18;3.60;;;0.70;99.90;;;;;;4916088;29;20031;-65
2023/11/26 02:48:37;;;;;;;9.25;3.88;;;0.70;99.90;;;;;;4916320;29;20561;-66
2023/11/26 02:51:02;;;;;;;9.48;3.50;;;0.70;99.90;;;;;;4916732;29;20024;-66
2023/11/26 02:53:28;;;;;;;12.63;3.83;;;0.60;99.90;;;;;;4915953;29;20474;-66
2023/11/26 02:55:53;;;;;;;7.35;3.45;;;0.60;99.90;;;;;;4916457;29;20497;-65
2023/11/26 02:58:19;;;;;;;9.50;4.38;;;0.70;99.90;;;;;;4915854;29;20044;-65
2023/11/26 03:00:47;;;;;;;10.93;3.85;;;0.60;99.90;;;;;;4916182;29;20048;-66
2023/11/26 03:03:12;;;;;;;10.60;5.38;;;0.70;99.90;;;;;;4916653;29;20103;-66
2023/11/26 03:05:38;;;;;;;8.02;3.83;;;0.70;99.90;;;;;;4915821;29;20223;-66
2023/11/26 03:08:21;;;;;;;6.60;3.35;;;0.80;99.90;;;;;;4899827;29;20504;-65
2023/11/26 03:13:35;;;;;;;7.53;2.85;;;0.90;99.90;;;;;;4915782;29;20035;-65
2023/11/26 03:16:07;;;;;;;8.25;2.70;;;0.90;99.90;;;;;;4916274;29;20032;-66
2023/11/26 03:18:33;;;;;;;6.68;3.05;;;0.90;99.90;;;;;;4916053;29;20035;-65
2023/11/26 03:20:58;;;;;;;11.98;2.95;;;0.90;99.90;;;;;;4916007;29;20441;-65
2023/11/26 03:23:24;;;;;;;6.15;3.03;;;0.90;99.90;;;;;;4915864;29;20115;-65
2023/11/26 03:25:53;;;;;;;5.68;2.40;;;1.00;99.90;;;;;;4915914;29;20063;-66
2023/11/26 03:28:20;;;;;;;5.23;2.83;;;1.00;99.90;;;;;;4915462;29;20469;-65
2023/11/26 03:30:46;;;;;;;9.27;2.83;;;1.00;99.90;;;;;;4915916;29;20524;-66
2023/11/26 03:33:16;;;;;;;7.18;2.88;;;1.00;99.90;;;;;;4915780;29;20099;-65
2023/11/26 03:35:43;;;;;;;9.88;2.83;;;1.00;99.90;;;;;;4915784;29;20025;-66
2023/11/26 03:38:08;;;;;;;7.93;2.53;;;0.90;99.90;;;;;;4915801;29;20063;-66
2023/11/26 03:40:35;;;;;;;9.63;3.17;;;1.00;99.90;;;;;;4915098;29;20028;-65
2023/11/26 03:43:00;;;;;;;5.43;2.58;;;1.00;99.90;;;;;;4913224;29;20028;-66
2023/11/26 03:45:26;;;;;;;5.25;2.50;;;1.00;99.90;;;;;;4898052;29;20020;-66
2023/11/26 03:47:51;;;;;;;9.70;2.88;;;1.00;99.90;;;;;;4915799;29;20092;-66
2023/11/26 03:50:19;;;;;;;8.43;3.10;;;1.00;99.90;;;;;;4915015;29;20385;-66
2023/11/26 03:52:45;;;;;;;8.15;3.08;;;1.00;99.90;;;;;;4915774;29;20478;-66
2023/11/26 03:55:11;;;;;;;12.40;2.70;;;1.00;99.90;;;;;;4916149;29;20044;-66
2023/11/26 03:57:37;;;;;;;6.75;2.33;;;1.10;99.90;;;;;;4914964;29;20079;-66
2023/11/26 04:00:09;;;;;;;7.32;2.08;;;1.10;99.90;;;;;;4915900;29;20028;-66
2023/11/26 04:02:36;;;;;;;5.78;2.25;;;1.10;99.90;;;;;;4898084;29;20837;-66
2023/11/26 04:05:03;;;;;;;10.43;2.15;;;1.10;99.90;;;;;;4915664;29;20099;-65
2023/11/26 04:07:28;;;;;;;8.00;2.17;;;1.20;99.90;;;;;;4914388;29;20048;-66
2023/11/26 04:09:54;;;;;;;5.22;1.98;;;1.20;99.90;;;;;;4915829;29;20152;-66
2023/11/26 04:12:20;;;;;;;7.18;2.10;;;1.30;99.90;;;;;;4913825;29;20032;-65
2023/11/26 04:14:56;;;;;;;6.43;2.15;;;1.20;99.90;;;;;;4915527;29;20024;-65
2023/11/26 04:17:23;;;;;;;5.45;1.80;;;1.20;99.90;;;;;;4914504;29;20390;-65
2023/11/26 04:19:49;;;;;;;4.50;1.85;;;1.30;99.90;;;;;;4915418;29;20032;-66
2023/11/26 04:22:17;;;;;;;4.50;1.73;;;1.20;99.90;;;;;;4914103;29;20083;-65
2023/11/26 04:24:43;;;;;;;6.60;2.20;;;1.20;99.90;;;;;;4915809;29;20054;-65
2023/11/26 04:27:09;;;;;;;5.47;2.13;;;1.20;99.90;;;;;;4897833;29;20051;-65
2023/11/26 04:29:35;;;;;;;5.85;1.83;;;1.20;99.90;;;;;;4913455;29;20099;-65
2023/11/26 04:32:01;;;;;;;4.15;1.60;;;1.20;99.90;;;;;;4914629;29;20171;-66
2023/11/26 04:34:26;;;;;;;4.43;1.77;;;1.20;99.90;;;;;;4914211;29;20036;-65
2023/11/26 04:36:52;;;;;;;5.93;1.98;;;1.30;99.90;;;;;;4913995;29;20043;-65
2023/11/26 04:39:17;;;;;;;5.05;2.47;;;1.20;99.90;;;;;;4914418;29;20107;-65
2023/11/26 04:41:43;;;;;;;6.38;1.77;;;1.30;99.90;;;;;;4914807;29;20059;-65
2023/11/26 04:44:09;;;;;;;5.50;1.67;;;1.30;99.90;;;;;;4911613;29;20032;-65
2023/11/26 04:46:34;;;;;;;4.63;1.98;;;1.30;99.90;;;;;;4913856;29;20100;-66
2023/11/26 04:49:00;;;;;;;3.03;1.42;;;1.30;99.90;;;;;;4915091;29;20036;-66
2023/11/26 04:51:27;;;;;;;12.13;1.95;;;1.40;99.90;;;;;;4913905;29;20083;-65
2023/11/26 04:53:53;;;;;;;4.40;1.35;;;1.40;99.90;;;;;;4914841;29;20056;-65
2023/11/26 04:56:19;;;;;;;4.22;1.00;;;1.40;99.90;;;;;;4913275;29;20028;-65
2023/11/26 04:58:45;;;;;;;4.50;1.33;;;1.50;99.90;;;;;;4914738;29;20032;-66
2023/11/26 05:01:17;;;;;;;3.75;1.40;;;1.50;99.90;;;;;;4914434;29;20038;-66
2023/11/26 05:03:42;;;;;;;4.18;1.38;;;1.50;99.90;;;;;;4914720;29;20032;-65
2023/11/26 05:06:09;;;;;;;5.85;1.55;;;1.50;99.90;;;;;;4914464;29;20084;-67
2023/11/26 05:08:35;;;;;;;1.58;1.00;;;1.60;99.90;;;;;;4913875;29;20032;-66
2023/11/26 05:11:01;;;;;;;4.57;1.45;;;1.50;99.90;;;;;;4914605;29;20024;-65
2023/11/26 05:13:28;;;;;;;7.60;2.00;;;1.50;99.90;;;;;;4913823;29;20032;-65
2023/11/26 05:15:53;;;;;;;6.30;1.85;;;1.50;99.90;;;;;;4914035;29;20029;-65
2023/11/26 05:18:20;;;;;;;7.40;1.85;;;1.50;99.90;;;;;;4913885;29;20190;-66
2023/11/26 05:20:48;;;;;;;5.00;1.80;;;1.50;99.90;;;;;;4914276;29;20303;-65
2023/11/26 05:23:14;;;;;;;4.90;1.50;;;1.50;99.90;;;;;;4913790;29;20035;-65
2023/11/26 05:25:40;;;;;;;5.70;1.30;;;1.50;99.90;;;;;;4913615;29;20032;-65
2023/11/26 05:28:05;;;;;;;4.55;1.48;;;1.50;99.90;;;;;;4914668;29;20442;-65
2023/11/26 05:30:31;;;;;;;8.13;1.40;;;1.50;99.90;;;;;;4912966;29;20123;-66
2023/11/26 05:32:59;;;;;;;3.90;1.10;;;1.50;99.90;;;;;;4914261;29;20108;-65
2023/11/26 05:35:27;;;;;;;3.35;1.65;;;1.50;99.90;;;;;;4913474;29;20031;-67
2023/11/26 05:37:53;;;;;;;4.30;1.60;;;1.50;99.90;;;;;;4899091;29;20454;-66
2023/11/26 05:40:20;;;;;;;5.07;1.80;;;1.50;99.90;;;;;;4913620;29;20032;-66
2023/11/26 05:42:45;;;;;;;8.68;2.20;;;1.50;99.90;;;;;;4915201;29;20036;-66
2023/11/26 05:45:11;;;;;;;6.05;1.48;;;1.50;99.90;;;;;;4918199;29;20036;-65
2023/11/26 05:47:37;;;;;;;4.63;1.38;;;1.40;99.90;;;;;;4917138;29;20040;-66
2023/11/26 05:50:03;;;;;;;3.30;1.40;;;1.40;99.90;;;;;;4917818;29;20052;-66
2023/11/26 05:52:28;;;;;;;4.90;1.38;;;1.40;99.90;;;;;;4916790;29;20036;-66
2023/11/26 05:54:54;;;;;;;3.50;1.15;;;1.40;99.90;;;;;;4918101;29;20110;-66
2023/11/26 05:57:20;;;;;;;4.60;1.48;;;1.30;99.90;;;;;;4916882;29;20039;-66
2023/11/26 05:59:45;;;;;;;4.82;1.63;;;1.40;99.90;;;;;;4917744;29;20034;-65
2023/11/26 06:02:11;;;;;;;3.70;1.38;;;1.40;99.90;;;;;;4916096;29;20461;-67
2023/11/26 06:04:37;;;;;;;2.22;1.13;;;1.40;99.90;;;;;;4917053;29;20390;-66
2023/11/26 06:07:05;;;;;;;4.68;1.20;;;1.40;99.90;;;;;;4917417;29;20397;-65
2023/11/26 06:09:31;;;;;;;3.50;1.27;;;1.40;99.90;;;;;;4917003;29;20046;-66
2023/11/26 06:11:57;;;;;;;2.83;1.30;;;1.30;99.90;;;;;;4917021;29;20028;-66
2023/11/26 06:14:23;;;;;;;4.72;0.90;;;1.40;99.90;;;;;;4916765;29;20486;-66
2023/11/26 06:16:49;;;;;;;2.72;1.10;;;1.40;99.90;;;;;;4917125;29;20123;-65
2023/11/26 06:19:16;;;;;;;6.53;1.10;;;1.40;99.90;;;;;;4917031;29;20028;-66
2023/11/26 06:21:42;;;;;;;3.97;1.30;;;1.40;99.90;;;;;;4917011;29;20492;-66
2023/11/26 06:24:09;;;;;;;5.07;1.33;;;1.40;99.90;;;;;;4918125;29;20071;-65
2023/11/26 06:26:35;;;;;;;3.10;1.05;;;1.50;99.90;;;;;;4916334;29;20024;-65
2023/11/26 06:29:01;;;;;;;2.15;0.75;;;1.50;99.90;;;;;;4917528;29;20035;-65
2023/11/26 06:31:29;;;;;;;1.75;0.70;;;1.50;99.90;;;;;;4916036;29;20091;-65
2023/11/26 06:33:55;;;;;;;1.60;0.60;;;1.60;99.90;;;;;;4916708;29;20067;-65
2023/11/26 06:36:23;;;;;;;10.35;1.80;;;1.60;99.90;;;;;;4915810;29;20511;-65
2023/11/26 06:38:51;;;;;;;1.33;0.70;;;1.70;99.90;;;;;;4916872;29;20036;-66
2023/11/26 06:41:28;;;;;;;4.25;1.15;;;1.70;99.90;;;;;;4916039;29;20116;-66
2023/11/26 06:43:55;;;;;;;6.35;1.05;;;1.80;99.90;;;;;;4914510;29;20099;-66
2023/11/26 06:46:22;;;;;;;5.53;1.33;;;1.80;99.90;;;;;;4915692;29;20052;-65
2023/11/26 06:48:48;;;;;;;6.35;0.90;;;1.90;99.90;;;;;;4916780;29;20114;-65
2023/11/26 06:51:14;;;;;;;4.93;1.60;;;1.90;99.90;;;;;;4915805;29;20116;-65
2023/11/26 06:53:40;;;;;;;4.85;1.17;;;1.90;99.90;;;;;;4916698;29;20048;-65
2023/11/26 06:56:09;;;;;;;5.35;1.17;;;1.90;99.90;;;;;;4916611;29;20032;-65
2023/11/26 06:58:41;;;;;;;3.47;1.55;;;2.00;99.90;;;;;;4900775;29;20043;-65
2023/11/26 07:01:07;;;;;;;3.17;1.20;;;2.00;99.90;;;;;;4916618;29;20071;-65
2023/11/26 07:03:34;;;;;;;5.07;1.58;;;2.00;99.90;;;;;;4915832;29;20087;-65
2023/11/26 07:06:11;;;;;;;4.15;1.42;;;2.00;99.90;;;;;;4915884;29;20060;-65
2023/11/26 07:08:38;;;;;;;3.58;1.30;;;1.90;99.90;;;;;;4900525;29;20561;-65
2023/11/26 07:11:04;;;;;;;6.25;1.13;;;1.90;99.90;;;;;;4916235;29;20016;-65
2023/11/26 07:13:30;;;;;;;5.45;1.83;;;2.00;99.90;;;;;;4915895;29;20544;-66
2023/11/26 07:15:56;;;;;;;5.78;1.35;;;2.10;99.90;;;;;;4915598;29;20169;-66
2023/11/26 07:18:21;;;;;;;3.47;1.17;;;2.10;99.90;;;;;;4915618;29;20115;-66
2023/11/26 07:20:47;;;;;;;2.45;1.00;;;2.10;99.90;;;;;;4916016;29;20044;-65
2023/11/26 07:23:13;;;;;;;4.85;1.50;;;2.10;99.90;;;;;;4916303;29;20108;-66
2023/11/26 07:25:39;;;;;;;2.97;1.20;;;2.20;99.90;;;;;;4915618;29;20056;-65
2023/11/26 07:28:08;;;;;;;2.30;1.30;;;2.20;99.90;;;;;;4915772;29;20541;-65
2023/11/26 07:30:44;;;;;;;4.27;1.17;;;2.30;99.90;;;;;;4914413;29;20795;-65
2023/11/26 07:33:10;;;;;;;2.60;1.50;;;2.30;99.90;;;;;;4916168;29;20100;-65
2023/11/26 07:35:37;;;;;;;3.70;1.30;;;2.30;99.90;;;;;;4914724;29;20283;-66
2023/11/26 07:38:03;;;;;;;9.00;2.10;;;2.40;99.90;;;;;;4915784;29;20113;-65
2023/11/26 07:40:30;;;;;;;2.15;1.42;;;2.40;99.90;;;;;;4914328;29;20784;-66
2023/11/26 07:42:55;;;;;;;3.92;1.50;;;2.50;99.90;;;;;;4912985;29;20032;-66
2023/11/26 07:45:21;;;;;;;2.70;0.95;;;2.50;99.90;;;;;;4914657;29;20469;-67
2023/11/26 07:47:47;;;;;;;3.40;1.48;;;2.50;99.90;;;;;;4915422;29;20470;-67
2023/11/26 07:50:13;;;;;;;5.03;1.60;;;2.60;99.90;;;;;;4915727;29;20039;-67
2023/11/26 07:52:39;;;;;;;6.25;1.90;;;2.60;99.90;;;;;;4914752;29;20027;-65
2023/11/26 07:55:05;;;;;;;3.65;1.83;;;2.60;99.90;;;;;;4915530;29;20032;-67
2023/11/26 07:57:31;;;;;;;3.40;1.67;;;2.60;99.90;;;;;;4914215;29;20374;-66
2023/11/26 07:59:58;;;;;;;5.72;2.15;;;2.70;99.90;;;;;;4915661;29;20393;-67
2023/11/26 08:02:24;;;;;;;5.47;1.67;;;2.70;99.90;;;;;;4914228;29;20028;-67
2023/11/26 08:04:53;;;;;;;2.20;1.77;;;2.70;99.90;;;;;;4914351;29;20050;-67
2023/11/26 08:07:23;;;;;;;4.93;1.90;;;2.80;99.90;;;;;;4897583;29;20486;-67
2023/11/26 08:09:52;;;;;;;3.90;2.22;;;2.70;99.90;;;;;;4915726;29;20119;-67
2023/11/26 08:12:23;;;;;;;5.65;1.80;;;2.70;99.90;;;;;;4914005;29;20103;-67
2023/11/26 08:14:53;;;;;;;4.95;2.42;;;2.70;99.90;;;;;;4914635;29;20040;-66
2023/11/26 08:17:19;;;;;;;5.45;2.08;;;2.70;99.90;;;;;;4912841;29;20036;-67
2023/11/26 08:19:48;;;;;;;4.57;1.92;;;2.70;99.90;;;;;;4915402;29;20035;-67
2023/11/26 08:22:14;;;;;;;8.13;2.30;;;2.80;99.90;;;;;;4913706;29;20095;-67
2023/11/26 08:24:42;;;;;;;3.28;2.30;;;2.80;99.90;;;;;;4915090;29;20061;-66
2023/11/26 08:27:11;;;;;;;5.35;2.60;;;2.80;99.90;;;;;;4914595;29;20119;-67
2023/11/26 08:29:38;;;;;;;6.15;2.35;;;2.80;99.90;;;;;;4914708;29;20036;-67
2023/11/26 08:32:04;;;;;;;4.18;2.00;;;2.90;99.90;;;;;;4913924;29;20076;-66
2023/11/26 08:34:37;;;;;;;6.88;2.08;;;3.00;99.90;;;;;;4914566;29;20060;-67
2023/11/26 08:37:05;;;;;;;9.18;2.80;;;3.00;99.90;;;;;;4897019;29;20506;-67
2023/11/26 08:39:33;;;;;;;5.22;2.15;;;3.10;99.90;;;;;;4914543;29;20028;-67
2023/11/26 08:41:59;;;;;;;8.38;2.38;;;3.10;99.90;;;;;;4912505;29;20032;-66
2023/11/26 08:44:24;;;;;;;6.50;3.03;;;3.10;99.90;;;;;;4913153;29;20024;-67
2023/11/26 08:46:50;;;;;;;6.47;2.88;;;3.20;99.90;;;;;;4914467;29;20632;-66
2023/11/26 08:49:20;;;;;;;7.07;2.10;;;3.20;99.90;;;;;;4914418;29;20135;-66
2023/11/26 08:51:47;;;;;;;6.80;2.53;;;3.30;99.90;;;;;;4914300;29;20032;-65
2023/11/26 08:54:12;;;;;;;6.35;3.03;;;3.40;99.90;;;;;;4914667;29;20046;-67
2023/11/26 08:56:38;;;;;;;6.47;2.50;;;3.50;99.90;;;;;;4913888;29;20020;-68
2023/11/26 08:59:04;;;;;;;6.43;2.28;;;3.50;99.90;;;;;;4915005;29;20051;-68
2023/11/26 09:01:30;;;;;;;8.38;2.40;;;3.70;99.90;;;;;;4913694;29;20036;-68
2023/11/26 09:03:56;;;;;;;6.78;2.70;;;3.80;99.90;;;;;;4914663;29;20119;-68
2023/11/26 09:06:21;;;;;;;7.25;3.03;;;3.80;99.90;;;;;;4913429;29;20072;-67
2023/11/26 09:08:50;;;;;;;4.60;2.00;;;3.90;99.90;;;;;;4914864;29;20032;-68
2023/11/26 09:11:19;;;;;;;4.70;2.47;;;4.00;99.90;;;;;;4913571;29;20033;-67
2023/11/26 09:13:51;;;;;;;7.45;2.40;;;4.00;99.90;;;;;;4916074;29;20084;-68
2023/11/26 09:16:17;;;;;;;8.90;2.70;;;4.10;99.90;;;;;;4917022;29;20032;-67
2023/11/26 09:18:43;;;;;;;3.88;2.45;;;4.20;99.90;;;;;;4916867;29;20381;-68
2023/11/26 09:21:10;;;;;;;11.30;3.50;;;4.20;99.90;;;;;;4897364;29;20028;-67
2023/11/26 09:23:36;;;;;;;8.75;2.95;;;4.30;99.90;;;;;;4914476;29;20035;-67
2023/11/26 09:26:02;;;;;;;8.32;3.15;;;4.40;99.90;;;;;;4897297;29;20048;-67
2023/11/26 09:28:30;;;;;;;6.45;2.53;;;4.50;99.90;;;;;;4913599;29;20643;-68
2023/11/26 09:30:55;;;;;;;6.15;2.60;;;4.50;99.90;;;;;;4914140;29;20083;-66
2023/11/26 09:33:22;;;;;;;9.15;2.60;;;4.60;99.90;;;;;;4913269;29;20115;-66
2023/11/26 09:35:47;;;;;;;9.02;2.50;;;4.60;99.90;;;;;;4913686;29;20020;-66
2023/11/26 09:38:14;;;;;;;8.40;2.45;;;4.70;99.90;;;;;;4913070;29;20055;-66
2023/11/26 09:40:43;;;;;;;5.88;2.30;;;4.80;99.90;;;;;;4913855;29;20481;-66
2023/11/26 09:43:09;;;;;;;10.27;2.70;;;4.80;99.90;;;;;;4911359;29;20473;-67
2023/11/26 09:45:37;;;;;;;8.35;2.42;;;4.90;99.90;;;;;;4913296;29;20067;-67
2023/11/26 09:48:05;;;;;;;5.78;2.45;;;4.90;99.90;;;;;;4913969;29;20060;-67
2023/11/26 09:50:31;;;;;;;5.65;2.25;;;4.90;99.90;;;;;;4912985;29;20091;-66
2023/11/26 09:52:58;;;;;;;6.50;2.50;;;4.90;99.90;;;;;;4914434;29;20021;-67
2023/11/26 09:55:24;;;;;;;6.57;2.25;;;5.00;99.90;;;;;;4911406;29;20456;-65
2023/11/26 09:57:50;;;;;;;6.35;2.47;;;5.00;99.90;;;;;;4909069;29;20039;-67
2023/11/26 10:00:16;;;;;;;6.85;2.53;;;5.00;99.90;;;;;;4910965;29;20112;-67
2023/11/26 10:02:42;;;;;;;8.55;2.95;;;4.90;99.90;;;;;;4913361;29;20036;-67
2023/11/26 10:05:22;;;;;;;6.18;2.38;;;5.00;99.90;;;;;;4913768;29;20044;-67
2023/11/26 10:07:52;;;;;;;6.40;2.72;;;4.90;99.90;;;;;;4913570;29;20124;-66
2023/11/26 10:10:18;;;;;;;6.35;3.30;;;5.00;99.90;;;;;;4912871;29;20462;-65
2023/11/26 10:12:51;;;;;;;9.07;3.05;;;5.00;99.90;;;;;;4912436;29;20036;-66
2023/11/26 10:15:18;;;;;;;6.90;2.97;;;5.00;99.90;;;;;;4910814;29;20029;-66
2023/11/26 10:18:04;;;;;;;5.47;2.40;;;5.00;99.90;;;;;;4913933;29;20024;-67
2023/11/26 10:20:39;;;;;;;7.43;2.67;;;5.10;99.90;;;;;;4912005;29;20031;-67
2023/11/26 10:23:07;;;;;;;5.00;2.92;;;5.20;99.90;;;;;;4913566;29;20100;-67
2023/11/26 10:25:33;;;;;;;10.93;2.78;;;5.20;99.90;;;;;;4910084;29;20028;-66
2023/11/26 10:27:59;;;;;;;7.60;2.55;;;5.40;99.90;;;;;;4916327;29;20024;-66
2023/11/26 10:30:33;;;;;;;8.65;2.33;;;5.40;99.90;;;;;;4914146;29;20032;-65
2023/11/26 10:33:07;;;;;;;8.63;2.75;;;5.50;99.90;;;;;;4904346;29;20029;-67
2023/11/26 10:35:55;;;;;;;7.65;2.65;;;5.60;99.90;;;;;;4916211;29;20092;-66
2023/11/26 10:38:28;;;;;;;7.03;2.50;;;5.70;99.90;;;;;;4896461;29;20067;-66
2023/11/26 10:40:56;;;;;;;7.53;2.40;;;5.80;99.90;;;;;;4915662;29;20540;-66
2023/11/26 10:43:25;;;;;;;4.35;2.15;;;5.80;99.90;;;;;;4896344;29;20039;-68
2023/11/26 10:45:52;;;;;;;6.45;2.70;;;5.90;99.90;;;;;;4916063;29;20434;-68
2023/11/26 10:48:18;;;;;;;4.15;2.33;;;5.90;99.90;;;;;;4915415;29;20114;-66
2023/11/26 10:50:59;;;;;;;6.68;2.78;;;6.00;99.90;;;;;;4915959;29;20107;-66
2023/11/26 10:53:34;;;;;;;7.20;3.03;;;6.20;99.90;;;;;;4914187;29;20028;-68
2023/11/26 10:56:03;;;;;;;4.65;2.55;;;6.50;99.90;;;;;;4914228;29;20024;-67
2023/11/26 10:58:36;;;;;;;6.43;2.17;;;;;;;;;;4915195;29;20039;-66
2023/11/26 11:01:03;;;;;;;6.35;2.20;;;6.90;99.90;;;;;;4914131;29;20067;-68
2023/11/26 11:03:29;;;;;;;3.85;2.28;;;7.30;99.90;;;;;;4915326;29;20098;-66
2023/11/26 11:05:57;;;;;;;6.78;2.25;;;;;;;;;;4915744;29;20072;-67
2023/11/26 11:08:23;;;;;;;7.57;2.15;;;;;;;;;;4915585;29;20035;-75
2023/11/26 11:11:08;;;;;;;6.38;2.15;;;;;;;;;;4916983;29;20346;-69
2023/11/26 11:13:35;;;;;;;8.45;2.67;;;;;;;;;;4915053;29;20031;-67
2023/11/26 11:16:01;;;;;;;4.57;1.98;;;;;;;;;;4915614;29;20032;-67
2023/11/26 11:18:33;;;;;;;6.57;2.13;;;;;;;;;;4915189;29;20031;-70
2023/11/26 11:21:05;;;;;;;4.88;2.33;;;;;;;;;;4913619;29;20016;-72
2023/11/26 11:23:35;;;;;;;5.00;1.75;;;;;;;;;;4915024;29;20512;-70
2023/11/26 11:26:01;;;;;;;7.40;2.55;;;;;;;;;;4915291;29;20063;-69
2023/11/26 11:28:37;;;;;;;2.88;1.77;;;;;;;;;;4914854;29;20468;-69
2023/11/26 11:31:03;;;;;;;5.18;2.20;;;;;;;;;;4913849;29;20032;-70
2023/11/26 11:33:30;;;;;;;6.40;2.22;;;;;;;;;;4915101;29;20446;-70
2023/11/26 11:35:56;;;;;;;4.05;2.75;;;;;;;;;;4906471;29;20020;-67
2023/11/26 11:38:23;;;;;;;6.82;2.70;;;;;;;;;;4914058;29;20134;-70
2023/11/26 11:41:11;;;;;;;6.63;2.00;;;;;;;;;;4915384;29;20031;-69
2023/11/26 11:43:38;;;;;;;5.18;2.33;;;;;;;;;;4912832;29;20026;-69
2023/11/26 11:46:22;;;;;;;6.38;2.85;;;;;;;;;;4913095;29;20033;-68
2023/11/26 11:48:59;;;;;;;6.15;2.42;;;;;;;;;;4902521;29;20032;-64
2023/11/26 11:51:34;;;;;;;4.10;2.08;;;;;;;;;;4914805;29;20490;-68
2023/11/26 11:54:09;;;;;;;8.55;2.05;;;;;;;;;;4915891;29;20042;-70
2023/11/26 11:56:42;;;;;;;8.43;2.58;;;;;;;;;;4914264;29;20129;-69
2023/11/26 11:59:09;;;;;;;8.38;3.03;;;;;;;;;;4915621;29;20466;-70
2023/11/26 12:01:36;;;;;;;4.38;2.30;;;;;;;;;;4914553;29;20024;-73
2023/11/26 12:04:02;;;;;;;7.75;2.50;;;;;;;;;;4915672;29;20031;-71
2023/11/26 12:06:29;;;;;;;6.32;2.45;;;;;;;;;;4914841;29;20064;-71
2023/11/26 12:08:55;;;;;;;5.47;2.40;;;;;;;;;;4915398;29;20028;-68
2023/11/26 12:11:21;;;;;;;6.30;2.13;;;;;;;;;;4914189;29;20470;-68
2023/11/26 12:13:47;;;;;;;4.22;1.60;;;;;;;;;;4915378;29;20039;-67
2023/11/26 12:16:13;;;;;;;6.10;1.77;;;;;;;;;;4914276;29;20027;-64
2023/11/26 12:18:39;;;;;;;5.47;1.70;;;;;;;;;;4914918;29;20024;-65
2023/11/26 12:21:06;;;;;;;4.28;1.80;;;;;;;;;;4914789;29;20097;-65
2023/11/26 12:23:35;;;;;;;4.05;1.77;;;;;;;;;;4914663;29;20024;-65
2023/11/26 12:26:04;;;;;;;4.27;1.40;;;;;;;;;;4914496;29;20032;-65
2023/11/26 12:28:40;;;;;;;5.38;1.92;;;;;;;;;;4914171;29;20036;-65
2023/11/26 12:31:06;;;;;;;5.20;1.80;;;;;;;;;;4914842;29;20054;-64
2023/11/26 12:33:33;;;;;;;7.72;1.95;;;;;;;;;;4914065;29;20162;-65
2023/11/26 12:35:59;;;;;;;4.50;1.85;;;;;;;;;;4914446;29;20039;-64
2023/11/26 12:38:26;;;;;;;5.95;1.90;;;;;;;;;;4914008;29;20060;-64
2023/11/26 12:40:53;;;;;;;3.97;1.77;;;;;;;;;;4914009;29;20093;-65
2023/11/26 12:43:22;;;;;;;6.13;2.13;;;;;;;;;;4905938;29;20091;-65
2023/11/26 12:45:48;;;;;;;7.72;1.60;;;;;;;;;;4914235;29;20028;-65
2023/11/26 12:48:14;;;;;;;4.28;1.98;;;;;;;;;;4913898;29;20449;-64
2023/11/26 12:50:45;;;;;;;4.72;1.80;;;;;;;;;;4914143;29;20054;-65
2023/11/26 12:53:11;;;;;;;;;;;;;;;;;;4914618;29;20434;-64
2023/11/26 12:55:44;;;;;;;5.78;2.03;;;;;;;;;;4913699;29;19929;-66
2023/11/26 12:58:17;;;;;;;4.35;1.67;;;;;;;;;;4913178;29;20047;-65
2023/11/26 13:00:43;;;;;;;5.63;2.00;;;;;;;;;;4914078;29;20478;-65
2023/11/26 13:03:09;;;;;;;4.00;1.40;;;;;;;;;;4914553;29;20031;-65
2023/11/26 13:05:37;;;;;;;5.57;1.50;;;;;;;;;;4913232;29;20024;-64
2023/11/26 13:08:16;;;;;;;5.85;1.85;;;;;;;;;;4914571;29;20039;-64
2023/11/26 13:10:52;;;;;;;8.73;1.75;;;;;;;;;;4913651;29;20055;-64
2023/11/26 13:13:21;;;;;;;3.92;1.50;;;;;;;;;;4913500;29;20496;-68
2023/11/26 13:15:48;;;;;;;1.73;1.30;;;;;;;;;;4913762;29;20036;-67